Time;durP1;ratioP1;P1;durP2;ratioP2;P2;SDS_P1;SDS_P2;PMS_P1;PMS_P2;Temp;Humidity;BMP_temperature;BMP_pressure;BME280_temperature;BME280_humidity;BME280_pressure;Samples;Min_cycle;Max_cycle;Signal;HPM_P1;HPM_P2
2021/12/26 00:00:16;;;;;;;1008.78;938.38;;;;;;;-6.51;62.32;101063.78;691421;28;22412;-67
2021/12/26 00:00:38;;;;;;;1011.78;941.33;;;;;;;-6.54;62.33;101056.88;688636;28;90575;-67
2021/12/26 00:01:01;;;;;;;1011.85;941.65;;;;;;;-6.49;62.54;101063.72;689214;28;69422;-67
2021/12/26 00:01:22;;;;;;;1004.33;934.22;;;;;;;-6.49;62.56;101051.44;689156;28;46331;-67
2021/12/26 00:01:44;;;;;;;944.17;876.35;;;;;;;-6.47;62.61;101056.63;690089;28;44446;-67
2021/12/26 00:02:06;;;;;;;961.08;892.70;;;;;;;-6.45;62.72;101055.66;689560;28;47535;-67
2021/12/26 00:02:27;;;;;;;989.97;920.53;;;;;;;-6.44;62.72;101056.50;689489;28;46570;-67
2021/12/26 00:02:49;;;;;;;994.63;925.42;;;;;;;-6.44;62.79;101054.75;690132;28;22400;-67
2021/12/26 00:03:12;;;;;;;995.58;926.15;;;;;;;-6.43;62.64;101056.44;691121;28;22400;-67
2021/12/26 00:03:35;;;;;;;1001.33;931.42;;;;;;;-6.42;62.65;101060.78;687602;28;92250;-67
2021/12/26 00:03:56;;;;;;;1001.65;931.70;;;;;;;-6.41;62.68;101059.00;688629;28;69361;-67
2021/12/26 00:04:18;;;;;;;1002.25;932.72;;;;;;;-6.42;62.41;101050.28;689881;28;22415;-67
2021/12/26 00:04:40;;;;;;;1003.10;934.15;;;;;;;-6.41;62.71;101057.25;690661;28;22503;-67
2021/12/26 00:05:01;;;;;;;1001.70;933.03;;;;;;;-6.39;62.66;101051.94;689737;28;45280;-67
2021/12/26 00:05:23;;;;;;;1001.22;932.47;;;;;;;-6.40;62.47;101056.31;690256;28;23471;-67
2021/12/26 00:05:44;;;;;;;1004.95;936.10;;;;;;;-6.40;62.55;101060.75;690150;28;44390;-67
2021/12/26 00:06:11;;;;;;;997.05;927.92;;;;;;;-6.40;62.53;101060.75;690659;28;11273;-67
2021/12/26 00:06:33;;;;;;;1006.38;937.33;;;;;;;-6.42;62.51;101052.91;686340;28;138033;-66
2021/12/26 00:06:54;;;;;;;1009.00;940.27;;;;;;;-6.42;62.47;101055.53;690328;28;23564;-66
2021/12/26 00:07:16;;;;;;;1009.53;940.88;;;;;;;-6.42;62.34;101054.69;689787;28;46509;-66
2021/12/26 00:07:39;;;;;;;1004.67;936.17;;;;;;;-6.43;62.62;101055.59;689604;28;46402;-67
2021/12/26 00:08:00;;;;;;;996.17;927.95;;;;;;;-6.43;62.65;101063.50;687920;28;65482;-67
2021/12/26 00:08:22;;;;;;;995.70;927.35;;;;;;;-6.44;62.69;101056.50;689407;28;46389;-67
2021/12/26 00:08:46;;;;;;;998.97;929.95;;;;;;;-6.44;62.40;101053.88;690127;28;46376;-67
2021/12/26 00:09:07;;;;;;;1003.28;934.33;;;;;;;-6.45;62.61;101053.03;688395;28;69382;-67
2021/12/26 00:09:29;;;;;;;1007.28;938.47;;;;;;;-6.47;62.51;101059.25;689880;28;46404;-67
2021/12/26 00:09:50;;;;;;;996.28;927.47;;;;;;;-6.48;62.75;101057.56;690085;28;44371;-67
2021/12/26 00:10:13;;;;;;;998.95;930.88;;;;;;;-6.49;62.62;101053.22;690319;28;21670;-67
2021/12/26 00:10:34;;;;;;;1002.70;934.45;;;;;;;-6.49;62.54;101051.44;689172;28;68420;-67
2021/12/26 00:10:55;;;;;;;1002.90;934.50;;;;;;;-6.49;62.52;101063.72;691271;28;1406;-67
2021/12/26 00:11:18;;;;;;;1005.03;936.45;;;;;;;-6.52;62.72;101051.56;691703;28;1456;-67
2021/12/26 00:11:39;;;;;;;1009.60;940.78;;;;;;;-6.50;62.78;101055.00;688989;28;69355;-67
2021/12/26 00:12:00;;;;;;;1007.58;938.38;;;;;;;-6.52;62.70;101055.06;690329;28;22211;-67
2021/12/26 00:12:21;;;;;;;1005.20;936.80;;;;;;;-6.50;62.85;101060.25;690273;28;22629;-66
2021/12/26 00:12:44;;;;;;;1007.05;938.45;;;;;;;-6.50;62.75;101057.63;689947;28;22161;-66
2021/12/26 00:13:05;;;;;;;1004.35;936.45;;;;;;;-6.51;62.50;101058.53;689289;28;67252;-66
2021/12/26 00:13:26;;;;;;;1011.53;942.72;;;;;;;-6.54;62.75;101053.38;690577;28;24191;-66
2021/12/26 00:13:50;;;;;;;1011.08;941.95;;;;;;;-6.52;62.74;101051.56;691276;28;22336;-66
2021/12/26 00:14:11;;;;;;;1011.85;942.90;;;;;;;-6.54;62.65;101059.50;688675;28;92313;-66
2021/12/26 00:14:32;;;;;;;1003.03;935.17;;;;;;;-6.53;62.86;101065.63;691280;28;1515;-66
2021/12/26 00:14:53;;;;;;;994.63;926.50;;;;;;;-6.53;62.85;101055.97;690618;28;22618;-66
2021/12/26 00:15:16;;;;;;;1010.20;941.05;;;;;;;-6.55;62.91;101062.19;690288;28;22373;-66
2021/12/26 00:15:37;;;;;;;1011.28;941.92;;;;;;;-6.54;62.99;101056.88;689386;28;69434;-66
2021/12/26 00:15:59;;;;;;;998.63;929.42;;;;;;;-6.53;62.90;101060.38;690642;28;22396;-66
2021/12/26 00:16:21;;;;;;;1007.97;937.72;;;;;;;-6.55;63.00;101054.28;690227;28;47439;-67
2021/12/26 00:16:42;;;;;;;1011.72;940.72;;;;;;;-6.56;62.94;101050.81;689773;28;69516;-66
2021/12/26 00:17:04;;;;;;;1011.17;940.30;;;;;;;-6.55;62.82;101056.91;690853;28;22257;-66
2021/12/26 00:17:25;;;;;;;1013.35;942.20;;;;;;;-6.55;62.85;101051.66;690685;28;23446;-67
2021/12/26 00:17:47;;;;;;;1016.40;944.80;;;;;;;-6.56;63.08;101053.44;689715;28;21536;-67
2021/12/26 00:18:10;;;;;;;1017.30;945.75;;;;;;;-6.57;62.93;101051.72;689310;28;66752;-67
2021/12/26 00:18:31;;;;;;;1021.00;949.40;;;;;;;-6.55;62.97;101057.81;689308;28;46455;-66
2021/12/26 00:18:53;;;;;;;1012.97;941.58;;;;;;;-6.55;63.08;101054.28;689608;28;46217;-66
2021/12/26 00:19:14;;;;;;;1018.88;947.15;;;;;;;-6.56;63.06;101056.06;689681;28;45266;-66
2021/12/26 00:19:36;;;;;;;1015.17;943.58;;;;;;;-6.56;63.05;101052.59;690862;28;23501;-66
2021/12/26 00:19:57;;;;;;;1016.92;945.30;;;;;;;-6.58;63.00;101052.66;690559;28;22376;-66
2021/12/26 00:20:20;;;;;;;1013.38;941.90;;;;;;;-6.56;62.79;101055.22;689586;28;45245;-66
2021/12/26 00:20:41;;;;;;;996.55;925.80;;;;;;;-6.54;63.13;101062.13;689565;28;67543;-66
2021/12/26 00:21:03;;;;;;;992.95;922.35;;;;;;;-6.56;62.92;101056.06;690309;28;22401;-66
2021/12/26 00:21:25;;;;;;;998.40;927.50;;;;;;;-6.53;62.95;101060.38;689492;28;45233;-67
2021/12/26 00:21:47;;;;;;;992.72;922.03;;;;;;;-6.54;62.99;101058.66;689980;28;44197;-67
2021/12/26 00:22:08;;;;;;;996.38;925.67;;;;;;;-6.54;62.74;101056.00;690074;28;43719;-67
2021/12/26 00:22:29;;;;;;;1001.13;930.17;;;;;;;-6.55;62.80;101063.06;690524;28;23340;-67
2021/12/26 00:22:53;;;;;;;995.92;925.10;;;;;;;-6.52;62.83;101060.31;688886;28;23470;-67
2021/12/26 00:23:16;;;;;;;997.70;926.78;;;;;;;-6.51;62.86;101063.78;688620;28;90350;-67
2021/12/26 00:23:37;;;;;;;1000.88;929.78;;;;;;;-6.51;63.20;101053.28;689429;28;67507;-66
2021/12/26 00:23:59;;;;;;;996.88;925.90;;;;;;;-6.50;63.33;101059.38;690619;28;22289;-67
2021/12/26 00:24:21;;;;;;;1003.97;932.78;;;;;;;-6.47;62.82;101056.63;690098;28;45323;-67
2021/12/26 00:24:42;;;;;;;1008.75;937.35;;;;;;;-6.48;62.99;101055.78;689823;28;46251;-67
2021/12/26 00:25:04;;;;;;;1008.55;937.28;;;;;;;-6.46;62.87;101060.97;690843;28;22342;-66
2021/12/26 00:25:25;;;;;;;1010.78;939.40;;;;;;;-6.46;62.82;101056.56;691438;28;1442;-66
2021/12/26 00:25:48;;;;;;;1009.67;938.30;;;;;;;-6.44;63.02;101061.75;690995;28;23375;-66
2021/12/26 00:26:09;;;;;;;1002.33;931.33;;;;;;;-6.41;63.05;101059.88;689184;28;69388;-66
2021/12/26 00:26:32;;;;;;;1000.05;929.05;;;;;;;-6.40;62.97;101055.47;690622;28;23445;-66
2021/12/26 00:26:53;;;;;;;995.20;924.35;;;;;;;-6.38;63.04;101054.50;689178;28;69393;-66
2021/12/26 00:27:15;;;;;;;1014.13;942.70;;;;;;;-6.38;63.14;101057.16;691995;28;930;-66
2021/12/26 00:27:37;;;;;;;1016.33;944.80;;;;;;;-6.42;63.17;101050.28;689955;28;44356;-66
2021/12/26 00:27:58;;;;;;;1010.97;939.47;;;;;;;-6.38;62.96;101062.41;689024;28;46372;-66
2021/12/26 00:28:19;;;;;;;1011.65;940.30;;;;;;;-6.37;63.16;101065.88;690810;28;22404;-66
2021/12/26 00:28:41;;;;;;;1015.10;943.60;;;;;;;-6.36;63.20;101057.09;687377;28;43824;-66
2021/12/26 00:29:04;;;;;;;1010.65;939.25;;;;;;;-6.36;63.26;101059.72;684971;28;45465;-66
2021/12/26 00:29:25;;;;;;;1003.85;932.65;;;;;;;-6.36;63.23;101060.56;682871;28;45241;-66
2021/12/26 00:29:47;;;;;;;1004.28;933.17;;;;;;;-6.35;63.15;101062.28;682728;28;22604;-66
2021/12/26 00:30:11;;;;;;;1010.65;939.25;;;;;;;-6.32;63.10;101057.81;682986;28;23710;-66
2021/12/26 00:30:34;;;;;;;1012.20;941.10;;;;;;;-6.29;63.18;101062.94;680732;28;115503;-66
2021/12/26 00:30:57;;;;;;;1012.65;941.53;;;;;;;-6.31;63.00;101063.00;686100;28;46362;-66
2021/12/26 00:31:19;;;;;;;1007.58;936.50;;;;;;;-6.28;63.14;101059.41;687252;28;90484;-66
2021/12/26 00:31:40;;;;;;;1008.53;937.40;;;;;;;-6.27;63.14;101059.34;689320;28;16923;-66
2021/12/26 00:32:02;;;;;;;1007.83;936.70;;;;;;;-6.27;63.27;101056.72;686827;28;21521;-66
2021/12/26 00:32:23;;;;;;;1008.50;937.30;;;;;;;-6.25;63.19;101064.53;688274;28;1396;-66
2021/12/26 00:32:45;;;;;;;1004.17;933.15;;;;;;;-6.27;63.38;101063.72;686527;28;46386;-66
2021/12/26 00:33:06;;;;;;;1009.20;938.00;;;;;;;-6.26;63.42;101063.66;686453;28;46345;-67
2021/12/26 00:33:29;;;;;;;999.40;928.47;;;;;;;-6.26;63.16;101057.56;688264;28;22245;-67
2021/12/26 00:33:50;;;;;;;988.25;917.65;;;;;;;-6.26;63.01;101063.66;688290;28;46930;-67
2021/12/26 00:34:11;;;;;;;1002.08;931.03;;;;;;;-6.27;63.13;101059.34;687769;28;46701;-67
2021/12/26 00:34:34;;;;;;;1000.03;929.13;;;;;;;-6.31;62.97;101055.13;688051;28;23445;-67
2021/12/26 00:34:56;;;;;;;1002.45;931.47;;;;;;;-6.34;62.94;101055.25;687727;28;44396;-67
2021/12/26 00:35:21;;;;;;;989.10;918.42;;;;;;;-6.32;62.87;101058.66;688780;28;13774;-67
2021/12/26 00:35:43;;;;;;;987.92;917.33;;;;;;;-6.34;62.95;101061.34;689251;28;37732;-67
2021/12/26 00:36:06;;;;;;;999.58;928.65;;;;;;;-6.32;63.17;101057.81;688256;28;21755;-67
2021/12/26 00:36:27;;;;;;;1001.45;930.35;;;;;;;-6.35;63.12;101050.88;689011;28;67552;-67
2021/12/26 00:36:48;;;;;;;997.78;926.78;;;;;;;-6.35;63.15;101053.50;684965;28;22394;-67
2021/12/26 00:37:09;;;;;;;990.13;919.53;;;;;;;-6.32;62.96;101058.66;685539;28;20310;-67
2021/12/26 00:37:31;;;;;;;989.72;919.10;;;;;;;-6.33;62.82;101056.97;685384;28;23323;-67
2021/12/26 00:37:54;;;;;;;988.78;918.15;;;;;;;-6.34;63.02;101058.72;682736;28;46379;-67
2021/12/26 00:38:16;;;;;;;998.30;927.45;;;;;;;-6.36;62.83;101054.47;686592;28;69413;-67
2021/12/26 00:38:37;;;;;;;997.53;926.72;;;;;;;-6.36;62.91;101054.47;686459;28;46618;-67
2021/12/26 00:38:59;;;;;;;993.88;923.28;;;;;;;-6.38;62.74;101051.00;690539;28;21486;-67
2021/12/26 00:39:20;;;;;;;990.58;920.08;;;;;;;-6.40;62.58;101051.06;686323;28;46409;-67
2021/12/26 00:39:41;;;;;;;980.47;910.33;;;;;;;-6.40;62.56;101055.47;688889;28;1002;-66
2021/12/26 00:40:05;;;;;;;991.67;921.08;;;;;;;-6.42;62.86;101046.81;683416;28;69414;-67
2021/12/26 00:40:27;;;;;;;994.90;924.25;;;;;;;-6.42;62.82;101052.91;685269;28;44214;-67
2021/12/26 00:40:50;;;;;;;992.20;921.55;;;;;;;-6.45;62.94;101046.94;684396;28;44312;-67
2021/12/26 00:41:11;;;;;;;996.83;925.90;;;;;;;-6.45;62.79;101058.28;684681;28;70319;-67
2021/12/26 00:41:33;;;;;;;990.03;919.33;;;;;;;-6.46;62.94;101053.94;688165;28;22541;-67
2021/12/26 00:41:54;;;;;;;980.05;909.67;;;;;;;-6.47;62.84;101054.00;683460;28;21529;-67
2021/12/26 00:42:16;;;;;;;984.78;914.28;;;;;;;-6.50;62.87;101055.00;685467;28;22228;-67
2021/12/26 00:42:37;;;;;;;988.38;917.85;;;;;;;-6.50;62.71;101056.75;685537;28;44382;-67
2021/12/26 00:42:59;;;;;;;995.72;925.03;;;;;;;-6.54;62.83;101059.50;683295;28;44365;-66
2021/12/26 00:43:21;;;;;;;997.60;926.90;;;;;;;-6.54;62.83;101053.38;685061;28;21459;-66
2021/12/26 00:43:42;;;;;;;995.42;924.63;;;;;;;-6.56;62.98;101058.69;684492;28;44381;-66
2021/12/26 00:44:04;;;;;;;992.55;921.88;;;;;;;-6.57;63.00;101059.59;686197;28;44400;-66
2021/12/26 00:44:28;;;;;;;988.83;918.38;;;;;;;-6.60;62.86;101057.13;683174;28;68370;-66
2021/12/26 00:44:49;;;;;;;987.97;917.50;;;;;;;-6.63;62.99;101059.00;685256;28;45105;-67
2021/12/26 00:45:10;;;;;;;990.55;919.97;;;;;;;-6.68;62.90;101051.28;687591;28;23537;-67
2021/12/26 00:45:31;;;;;;;990.40;919.88;;;;;;;-6.65;62.97;101058.22;687931;28;22390;-67
2021/12/26 00:45:53;;;;;;;995.45;924.67;;;;;;;-6.67;62.96;101060.91;688218;28;22322;-66
2021/12/26 00:46:15;;;;;;;998.53;927.72;;;;;;;-6.67;63.15;101060.06;686632;28;67481;-66
2021/12/26 00:46:37;;;;;;;999.92;929.08;;;;;;;-6.68;63.09;101055.69;690922;28;1814;-66
2021/12/26 00:46:58;;;;;;;995.85;925.03;;;;;;;-6.71;62.96;101060.16;690332;28;22538;-67
2021/12/26 00:47:20;;;;;;;1005.08;933.97;;;;;;;-6.72;63.13;101068.94;690400;28;22365;-67
2021/12/26 00:47:41;;;;;;;1008.08;936.83;;;;;;;-6.74;63.04;101062.91;681897;28;44197;-67
2021/12/26 00:48:04;;;;;;;1003.92;932.72;;;;;;;-6.72;62.90;101062.84;686265;28;1565;-67
2021/12/26 00:48:26;;;;;;;1002.40;931.40;;;;;;;-6.72;63.04;101062.84;681900;28;45143;-67
2021/12/26 00:48:47;;;;;;;991.97;921.28;;;;;;;-6.69;63.16;101065.38;678929;28;69443;-67
2021/12/26 00:49:09;;;;;;;992.25;921.55;;;;;;;-6.71;63.15;101062.78;679317;29;46378;-67
2021/12/26 00:49:30;;;;;;;996.00;925.13;;;;;;;-6.70;63.33;101067.13;681532;28;23420;-67
2021/12/26 00:49:51;;;;;;;995.00;924.10;;;;;;;-6.70;63.15;101066.28;681943;28;21517;-66
2021/12/26 00:50:16;;;;;;;994.90;924.17;;;;;;;-6.70;63.12;101067.13;680160;28;44433;-66
2021/12/26 00:50:40;;;;;;;993.10;922.38;;;;;;;-6.71;63.30;101070.69;678784;28;138208;-66
2021/12/26 00:51:01;;;;;;;1003.78;933.13;;;;;;;-6.70;63.09;101069.75;679028;29;45028;-66
2021/12/26 00:51:22;;;;;;;1004.25;933.85;;;;;;;-6.71;63.08;101067.16;684818;28;23476;-66
2021/12/26 00:51:44;;;;;;;997.53;927.35;;;;;;;-6.69;62.92;101065.38;684813;28;22465;-66
2021/12/26 00:52:07;;;;;;;989.50;919.72;;;;;;;-6.68;62.96;101064.44;687260;28;22475;-66
2021/12/26 00:52:28;;;;;;;1003.58;933.28;;;;;;;-6.67;62.99;101065.31;684266;28;46275;-66
2021/12/26 00:52:49;;;;;;;1000.10;929.70;;;;;;;-6.68;63.08;101067.06;684129;28;22384;-66
2021/12/26 00:53:12;;;;;;;1004.92;934.38;;;;;;;-6.66;63.14;101062.63;685934;28;21533;-66
2021/12/26 00:53:34;;;;;;;998.35;927.88;;;;;;;-6.64;63.09;101065.19;686145;28;92323;-66
2021/12/26 00:53:55;;;;;;;999.58;928.88;;;;;;;-6.62;62.88;101061.56;689912;28;23492;-66
2021/12/26 00:54:17;;;;;;;996.83;925.92;;;;;;;-6.62;63.14;101058.94;690365;28;22389;-66
2021/12/26 00:54:39;;;;;;;993.35;922.53;;;;;;;-6.59;62.95;101064.06;689984;28;46384;-66
2021/12/26 00:55:00;;;;;;;996.25;925.30;;;;;;;-6.61;63.13;101065.91;689516;28;46636;-66
2021/12/26 00:55:21;;;;;;;1001.35;930.22;;;;;;;-6.61;62.87;101071.16;689886;28;22416;-66
2021/12/26 00:55:43;;;;;;;994.65;923.78;;;;;;;-6.62;63.13;101064.19;690359;28;23271;-66
2021/12/26 00:56:05;;;;;;;997.47;926.58;;;;;;;-6.62;63.17;101063.34;684700;28;45260;-66
2021/12/26 00:56:26;;;;;;;1001.78;930.67;;;;;;;-6.62;63.13;101063.34;682079;28;45205;-66
2021/12/26 00:56:47;;;;;;;1004.15;933.03;;;;;;;-6.61;63.29;101065.91;682548;28;23234;-66
2021/12/26 00:57:11;;;;;;;1006.58;935.38;;;;;;;-6.59;63.04;101065.84;682114;28;44134;-66
2021/12/26 00:57:32;;;;;;;1005.10;933.97;;;;;;;-6.61;63.08;101059.81;679718;28;92384;-66
2021/12/26 00:57:55;;;;;;;1001.25;930.50;;;;;;;-6.62;63.27;101064.19;683738;28;21340;-66
2021/12/26 00:58:16;;;;;;;995.58;924.70;;;;;;;-6.64;63.44;101066.03;687625;28;46366;-66
2021/12/26 00:58:37;;;;;;;996.53;925.53;;;;;;;-6.63;63.44;101066.88;687706;28;23481;-67
2021/12/26 00:58:58;;;;;;;999.28;928.35;;;;;;;-6.65;63.46;101066.94;687082;28;44213;-67
2021/12/26 00:59:20;;;;;;;1008.28;937.20;;;;;;;-6.63;63.16;101061.63;687369;28;21569;-67
2021/12/26 00:59:41;;;;;;;1003.83;933.38;;;;;;;-6.64;63.39;101068.66;685076;28;46508;-66
2021/12/26 01:00:04;;;;;;;1000.55;930.55;;;;;;;-6.64;63.36;101067.81;687042;28;22259;-66
2021/12/26 01:00:29;;;;;;;1007.28;936.80;;;;;;;-6.65;63.42;101064.31;681460;28;87452;-66
2021/12/26 01:00:51;;;;;;;1004.22;934.08;;;;;;;-6.66;63.27;101067.88;683071;28;68266;-66
2021/12/26 01:01:14;;;;;;;1003.05;932.58;;;;;;;-6.67;63.09;101058.28;682734;28;93030;-66
2021/12/26 01:01:35;;;;;;;996.63;925.95;;;;;;;-6.68;63.28;101060.94;684960;28;23331;-66
2021/12/26 01:01:56;;;;;;;999.20;928.33;;;;;;;-6.71;63.15;101062.78;684652;28;44233;-66
2021/12/26 01:02:17;;;;;;;1001.92;931.05;;;;;;;-6.70;63.19;101069.75;684321;28;22408;-66
2021/12/26 01:02:39;;;;;;;998.88;928.10;;;;;;;-6.73;63.10;101064.59;685997;28;4200;-66
2021/12/26 01:03:04;;;;;;;993.40;922.72;;;;;;;-6.73;63.01;101069.00;679059;28;88231;-66
2021/12/26 01:03:25;;;;;;;1001.85;931.28;;;;;;;-6.75;62.76;101070.84;680486;28;92216;-66
2021/12/26 01:03:47;;;;;;;1004.75;934.45;;;;;;;-6.78;62.73;101057.84;684321;28;45219;-66
2021/12/26 01:04:08;;;;;;;998.53;928.35;;;;;;;-6.78;62.46;101070.97;685859;28;21278;-66
2021/12/26 01:04:29;;;;;;;993.30;923.72;;;;;;;-6.82;62.64;101069.34;687817;28;21590;-66
2021/12/26 01:04:52;;;;;;;998.58;929.67;;;;;;;-6.85;62.50;101065.06;686708;28;1706;-66
2021/12/26 01:05:14;;;;;;;1006.92;937.22;;;;;;;-6.85;62.49;101072.09;683116;28;44384;-66
2021/12/26 01:05:38;;;;;;;1000.28;929.45;;;;;;;-6.87;62.65;101072.16;679850;28;69467;-66
2021/12/26 01:06:00;;;;;;;991.72;920.92;;;;;;;-6.88;62.70;101065.19;680166;28;68487;-66
2021/12/26 01:06:21;;;;;;;997.88;927.65;;;;;;;-6.89;62.53;101074.00;679191;29;46304;-66
2021/12/26 01:06:43;;;;;;;998.60;928.15;;;;;;;-6.89;62.76;101080.09;679234;29;22417;-67
2021/12/26 01:07:10;;;;;;;997.35;926.85;;;;;;;-6.88;63.01;101075.69;678840;28;45234;-67
2021/12/26 01:07:42;;;;;;;996.95;926.15;;;;;;;-6.91;62.68;101071.41;677773;28;137980;-67
2021/12/26 01:08:06;;;;;;;995.10;924.05;;;;;;;-6.93;62.81;101072.38;673636;28;158148;-67
2021/12/26 01:08:36;;;;;;;992.38;921.53;;;;;;;-6.97;62.59;101074.28;679673;28;60611;-66
2021/12/26 01:08:58;;;;;;;997.05;926.40;;;;;;;-6.95;62.69;101071.59;677632;28;137758;-66
2021/12/26 01:09:24;;;;;;;994.33;923.63;;;;;;;-6.95;62.51;101068.97;681232;28;44357;-66
2021/12/26 01:09:50;;;;;;;995.15;924.17;;;;;;;-6.99;62.62;101067.34;679845;29;62075;-66
2021/12/26 01:10:12;;;;;;;994.28;923.28;;;;;;;-6.99;62.64;101065.59;678640;28;137254;-66
2021/12/26 01:10:37;;;;;;;994.10;923.20;;;;;;;-6.97;62.72;101069.03;683185;28;44406;-66
2021/12/26 01:11:00;;;;;;;988.40;917.70;;;;;;;-6.98;62.81;101069.91;681302;28;115215;-67
2021/12/26 01:11:35;;;;;;;999.10;929.08;;;;;;;-7.01;62.68;101067.41;683727;28;137803;-67
2021/12/26 01:12:01;;;;;;;990.78;921.38;;;;;;;-6.99;62.71;101075.22;683199;28;136080;-66
2021/12/26 01:12:30;;;;;;;992.75;922.38;;;;;;;-7.00;62.69;101066.50;679757;28;138095;-66
2021/12/26 01:12:53;;;;;;;996.50;926.33;;;;;;;-6.99;62.79;101077.84;681152;28;45039;-66
2021/12/26 01:13:18;;;;;;;993.08;922.95;;;;;;;-7.03;63.04;101064.00;680506;28;67297;-66
2021/12/26 01:13:43;;;;;;;1000.05;929.75;;;;;;;-6.99;62.87;101068.22;677341;29;137842;-66
2021/12/26 01:14:18;;;;;;;996.20;926.10;;;;;;;-6.99;63.02;101070.84;676902;28;137745;-67
2021/12/26 01:14:59;;;;;;;999.25;929.17;;;;;;;-6.98;63.07;101066.44;679057;28;137216;-66
2021/12/26 01:15:33;;;;;;;1004.58;936.38;;;;;;;-6.99;63.03;101068.22;678902;28;160844;-66
2021/12/26 01:16:10;;;;;;;999.75;931.22;;;;;;;-6.98;63.05;101074.31;680849;28;137499;-66
2021/12/26 01:16:33;;;;;;;999.05;930.55;;;;;;;-6.96;63.11;101073.38;682417;28;113549;-66
2021/12/26 01:17:04;;;;;;;994.05;923.22;;;;;;;-6.96;63.18;101073.38;682980;28;44393;-66
2021/12/26 01:17:26;;;;;;;993.90;923.58;;;;;;;-6.96;63.16;101072.50;678315;28;137724;-66
2021/12/26 01:17:59;;;;;;;991.00;920.03;;;;;;;-6.97;63.30;101069.03;676086;28;136697;-67
2021/12/26 01:18:27;;;;;;;990.78;920.08;;;;;;;-6.99;63.14;101068.22;677465;28;137660;-67
2021/12/26 01:18:51;;;;;;;992.30;921.88;;;;;;;-7.00;62.98;101074.38;678220;28;115114;-67
2021/12/26 01:19:16;;;;;;;998.08;927.72;;;;;;;-7.01;63.11;101070.03;680524;28;70530;-67
2021/12/26 01:19:43;;;;;;;995.70;925.97;;;;;;;-7.02;63.02;101070.97;679559;28;113547;-67
2021/12/26 01:20:08;;;;;;;1005.03;935.33;;;;;;;-7.04;62.95;101069.31;678618;28;137982;-67
2021/12/26 01:20:49;;;;;;;1005.08;935.45;;;;;;;-7.05;63.12;101068.44;681675;28;114773;-67
2021/12/26 01:21:17;;;;;;;991.42;921.03;;;;;;;-7.09;62.91;101069.47;681439;28;137324;-67
2021/12/26 01:21:42;;;;;;;999.65;928.67;;;;;;;-7.08;62.93;101069.41;682383;28;136145;-67
2021/12/26 01:22:08;;;;;;;997.63;926.83;;;;;;;-7.09;62.78;101072.94;682466;28;136126;-67
2021/12/26 01:22:31;;;;;;;993.60;923.53;;;;;;;-7.09;62.77;101072.09;685390;28;45206;-67
2021/12/26 01:23:00;;;;;;;1003.72;933.53;;;;;;;-7.09;62.88;101078.19;678855;28;156214;-67
2021/12/26 01:23:23;;;;;;;1005.80;934.60;;;;;;;-7.08;62.77;101076.44;681802;28;46378;-67
2021/12/26 01:23:49;;;;;;;998.17;927.08;;;;;;;-7.11;62.87;101076.56;679854;29;69565;-67
2021/12/26 01:24:14;;;;;;;991.45;920.75;;;;;;;-7.13;62.65;101078.34;678711;28;138764;-67
2021/12/26 01:24:36;;;;;;;998.53;928.00;;;;;;;-7.15;62.59;101065.28;678826;28;113577;-67
2021/12/26 01:24:58;;;;;;;997.30;929.03;;;;;;;-7.14;62.71;101074.03;680229;29;44349;-67
2021/12/26 01:25:20;;;;;;;1000.95;930.38;;;;;;;-7.14;62.77;101080.13;680738;29;44360;-67
2021/12/26 01:25:42;;;;;;;989.75;919.05;;;;;;;-7.15;62.65;101077.56;682200;28;44376;-67
2021/12/26 01:26:03;;;;;;;983.47;913.45;;;;;;;-7.17;62.73;101071.53;681438;28;46649;-67
2021/12/26 01:26:28;;;;;;;991.83;921.45;;;;;;;-7.13;62.96;101081.84;678957;29;92120;-67
2021/12/26 01:26:50;;;;;;;995.00;925.65;;;;;;;-7.13;62.90;101078.34;681122;28;46397;-67
2021/12/26 01:27:21;;;;;;;996.97;927.25;;;;;;;-7.13;62.90;101073.97;677991;28;161543;-66
2021/12/26 01:27:48;;;;;;;998.45;927.85;;;;;;;-7.12;63.02;101080.91;681784;28;59312;-66
2021/12/26 01:28:11;;;;;;;989.05;919.10;;;;;;;-7.10;63.07;101080.88;681180;28;45250;-66
2021/12/26 01:28:33;;;;;;;995.28;925.55;;;;;;;-7.09;63.15;101083.44;682092;28;69336;-66
2021/12/26 01:28:59;;;;;;;1000.97;931.15;;;;;;;-7.07;63.28;101079.00;678483;28;115210;-66
2021/12/26 01:29:20;;;;;;;997.35;927.63;;;;;;;-7.07;63.28;101078.13;680323;29;45217;-66
2021/12/26 01:29:42;;;;;;;996.15;926.35;;;;;;;-7.07;63.31;101080.75;683542;28;21338;-66
2021/12/26 01:30:04;;;;;;;990.38;920.95;;;;;;;-7.07;63.27;101078.13;682002;28;45226;-66
2021/12/26 01:30:26;;;;;;;998.88;928.55;;;;;;;-7.04;63.27;101078.03;682933;28;45228;-66
2021/12/26 01:30:51;;;;;;;1004.88;934.42;;;;;;;-7.04;63.39;101075.41;682252;28;67084;-66
2021/12/26 01:31:18;;;;;;;999.25;928.92;;;;;;;-7.05;63.45;101076.34;682760;28;90107;-66
2021/12/26 01:31:42;;;;;;;996.03;925.65;;;;;;;-7.05;63.40;101076.34;681004;28;137445;-67
2021/12/26 01:32:24;;;;;;;997.10;927.10;;;;;;;-7.07;63.23;101072.88;681085;28;137225;-67
2021/12/26 01:33:00;;;;;;;997.78;926.83;;;;;;;-7.08;63.27;101076.44;682076;28;157264;-67
2021/12/26 01:33:39;;;;;;;997.85;926.95;;;;;;;-7.08;63.24;101079.91;686169;28;137892;-67
2021/12/26 01:34:24;;;;;;;993.95;923.25;;;;;;;-7.10;63.31;101081.75;679202;28;117672;-66
2021/12/26 01:35:04;;;;;;;998.25;927.30;;;;;;;-7.11;63.21;101073.94;679423;28;138544;-66
2021/12/26 01:35:43;;;;;;;997.42;926.38;;;;;;;-7.09;63.21;101077.34;686965;28;136589;-67
2021/12/26 01:36:34;;;;;;;996.47;925.58;;;;;;;-7.09;63.27;101069.47;681513;28;137444;-67
2021/12/26 01:37:34;;;;;;;998.70;927.97;;;;;;;-7.08;63.12;101073.81;679897;28;137707;-67
2021/12/26 01:38:35;;;;;;;997.92;927.47;;;;;;;-7.08;62.94;101071.19;677492;28;158463;-67
2021/12/26 01:39:08;;;;;;;999.95;929.05;;;;;;;-7.09;63.11;101072.94;678625;28;137779;-67
2021/12/26 01:39:52;;;;;;;998.97;928.00;;;;;;;-7.09;63.08;101069.47;679635;28;138410;-67
2021/12/26 01:40:38;;;;;;;995.70;924.80;;;;;;;-7.12;63.03;101066.94;678805;28;137681;-67
2021/12/26 01:41:10;;;;;;;1000.40;929.28;;;;;;;-7.09;63.03;101072.09;679448;28;135996;-67
2021/12/26 01:41:50;;;;;;;1004.78;933.47;;;;;;;-7.13;63.04;101068.72;680928;28;135907;-67
2021/12/26 01:42:23;;;;;;;1004.72;933.53;;;;;;;-7.12;62.96;101070.41;681926;28;137508;-66
2021/12/26 01:42:53;;;;;;;1000.05;928.85;;;;;;;-7.11;62.93;101071.31;680754;28;137594;-67
2021/12/26 01:43:31;;;;;;;981.78;911.35;;;;;;;-7.13;63.09;101066.09;682555;28;135384;-67
2021/12/26 01:44:04;;;;;;;988.28;917.58;;;;;;;-7.12;63.05;101066.94;681021;28;137539;-67
2021/12/26 01:44:36;;;;;;;984.10;914.72;;;;;;;-7.11;62.93;101071.31;678683;28;138994;-67
2021/12/26 01:45:06;;;;;;;994.17;923.35;;;;;;;-7.10;63.23;101066.00;676403;29;137842;-67
2021/12/26 01:45:37;;;;;;;997.80;926.95;;;;;;;-7.10;63.13;101071.25;677586;28;157632;-67
2021/12/26 01:46:00;;;;;;;993.30;923.35;;;;;;;-7.09;63.07;101069.47;682446;28;93298;-67
2021/12/26 01:46:22;;;;;;;989.00;920.50;;;;;;;-7.10;63.01;101070.38;683361;28;22430;-67
2021/12/26 01:46:47;;;;;;;991.33;924.45;;;;;;;-7.12;62.94;101057.28;680586;28;90712;-67
2021/12/26 01:47:09;;;;;;;997.08;929.22;;;;;;;-7.14;63.07;101059.13;681519;28;69432;-67
2021/12/26 01:47:31;;;;;;;989.20;921.15;;;;;;;-7.14;63.03;101060.91;676292;29;69416;-67
2021/12/26 01:47:57;;;;;;;996.00;926.30;;;;;;;-7.13;62.98;101068.72;673809;29;21987;-67
2021/12/26 01:48:20;;;;;;;998.55;928.15;;;;;;;-7.13;63.08;101068.72;671022;29;138243;-67